Wentworth, Australia
Current Conditions -  °F | °C
As of 4:00 AM on Friday 31 Oct 2014 (Local Time) from YMIA Reporting Station
Clear Clear  
Wind Chill: 61°   Ceiling: Unl
Heat Index: 61°   Visibility: 6mi
Dew Point: 36°   Wind: 6mph
Humidity: 39%   Direction: 150°SSE
Pressure: 29.8"   Gusts: NA
Location:  34.11°S, 141.92°E
Report Text: YMIA 301700Z AUTO 15005KT 9999 // NCD 16/02 Q1009
Loading
Personal Weather Stations






























Interactive Weather Map
Tropical Storm Tracking
New forecast layout! Learn more

10-Day Weather Forecast

Advertisements
Track Severe Weather on mobile